createdAt,value
2018-11-27T00:55:13.769Z,99.99
2018-11-27T00:56:13.194Z,99.99
2018-11-27T00:57:14.745Z,99.99
2018-11-27T00:58:14.429Z,99.99
2018-11-27T00:59:15.199Z,99.99
2018-11-27T01:00:15.846Z,99.99
2018-11-27T01:01:15.891Z,99.99
2018-11-27T01:02:16.309Z,99.99
2018-11-27T01:03:16.894Z,99.99
2018-11-27T01:04:17.482Z,99.99
2018-11-27T01:05:19.970Z,99.99
2018-11-27T01:06:20.596Z,99.99
2018-11-27T01:07:21.292Z,99.99
2018-11-27T01:08:21.921Z,99.99
2018-11-27T01:09:22.545Z,99.99
2018-11-27T01:10:23.255Z,99.99
2018-11-27T01:11:23.741Z,99.99
2018-11-27T01:12:24.441Z,99.99
2018-11-27T01:13:25.059Z,99.99
2018-11-27T01:14:25.663Z,99.99
2018-11-27T01:15:26.371Z,99.99
2018-11-27T01:16:26.976Z,99.99
2018-11-27T01:17:27.638Z,99.99
2018-11-27T01:18:28.312Z,99.99
2018-11-27T01:19:30.588Z,99.99
2018-11-27T01:20:31.157Z,99.99
2018-11-27T01:21:31.767Z,99.99
2018-11-27T01:22:32.418Z,99.99
2018-11-27T01:23:34.926Z,99.99
2018-11-27T01:24:35.627Z,99.99
2018-11-27T01:25:36.262Z,99.99
2018-11-27T01:26:36.969Z,99.99
2018-11-27T01:27:37.506Z,99.99
2018-11-27T01:28:39.034Z,99.99
2018-11-27T01:29:41.475Z,99.99
2018-11-27T01:30:42.140Z,99.99
2018-11-27T01:31:42.737Z,99.99
2018-11-27T01:32:43.470Z,99.99
2018-11-27T01:33:44.038Z,99.99
2018-11-27T01:34:45.483Z,99.99
2018-11-27T01:35:46.104Z,99.99
2018-11-27T01:36:47.597Z,99.99
2018-11-27T01:37:48.043Z,99.99
2018-11-27T01:38:48.753Z,99.99
2018-11-27T01:39:49.437Z,99.99
2018-11-27T01:40:50.143Z,99.99
2018-11-27T01:41:50.761Z,99.99
2018-11-27T01:42:51.521Z,99.99
2018-11-27T01:43:53.401Z,99.99
2018-11-27T01:44:54.135Z,99.99
2018-11-27T01:45:55.492Z,99.99
2018-11-27T01:46:56.168Z,99.99
2018-11-27T01:47:56.722Z,99.99
2018-11-27T01:48:57.389Z,99.99
2018-11-27T01:49:58.128Z,99.99
2018-11-27T01:50:58.784Z,99.99
2018-11-27T01:51:59.341Z,99.99
2018-11-27T01:53:01.527Z,99.99
2018-11-27T01:54:02.177Z,99.99
2018-11-27T01:55:02.769Z,99.99
2018-11-27T01:56:03.452Z,99.99
2018-11-27T01:57:04.307Z,99.99
2018-11-27T01:58:04.745Z,99.99
2018-11-27T01:59:05.410Z,99.99
2018-11-27T02:00:06.063Z,99.99
2018-11-27T02:01:06.762Z,99.99
2018-11-27T02:02:07.509Z,99.99
2018-11-27T02:03:07.990Z,99.99
2018-11-27T02:04:08.629Z,99.99
2018-11-27T02:05:09.425Z,99.99
2018-11-27T02:06:09.989Z,99.99
2018-11-27T02:07:10.664Z,99.99
2018-11-27T02:08:11.146Z,99.99
2018-11-27T02:09:11.912Z,99.99
2018-11-27T02:10:12.610Z,99.99
2018-11-27T02:11:13.173Z,99.99
2018-11-27T02:12:13.712Z,99.99
2018-11-27T02:13:14.329Z,99.99
2018-11-27T02:14:15.171Z,99.99
2018-11-27T02:15:15.815Z,99.99
2018-11-27T02:16:16.492Z,99.99
2018-11-27T02:17:16.922Z,99.99
2018-11-27T02:18:17.631Z,99.99
2018-11-27T02:19:18.244Z,99.99
2018-11-27T02:20:18.785Z,99.99
2018-11-27T02:21:19.835Z,99.99
2018-11-27T02:22:20.231Z,99.99
2018-11-27T02:23:20.835Z,99.99
2018-11-27T02:24:21.490Z,99.99
2018-11-27T02:25:22.078Z,99.99
2018-11-27T02:26:22.775Z,99.99
2018-11-27T02:27:23.406Z,99.99
2018-11-27T02:28:24.035Z,99.99
2018-11-27T02:29:24.699Z,99.99
2018-11-27T02:30:25.299Z,99.99
2018-11-27T02:31:25.984Z,99.99
2018-11-27T02:32:26.620Z,99.99
2018-11-27T02:33:27.301Z,99.99
2018-11-27T02:34:28.072Z,99.99
2018-11-27T02:35:28.656Z,99.99
2018-11-27T02:36:29.230Z,99.99
2018-11-27T02:37:29.763Z,99.99
2018-11-27T02:38:30.765Z,99.99
2018-11-27T02:39:31.161Z,99.99
2018-11-27T02:40:31.661Z,99.99
2018-11-27T02:41:32.440Z,99.99
2018-11-27T02:42:33.025Z,99.99
2018-11-27T02:43:33.731Z,99.99
2018-11-27T02:44:34.308Z,99.99
2018-11-27T02:45:35.048Z,99.99
2018-11-27T02:46:35.608Z,99.99
2018-11-27T02:47:36.283Z,99.99
2018-11-27T02:48:36.932Z,99.99
2018-11-27T02:49:37.510Z,99.99
2018-11-27T02:50:39.962Z,99.99
2018-11-27T02:51:40.575Z,99.99
2018-11-27T02:52:41.338Z,99.99
2018-11-27T02:53:41.911Z,99.99
2018-11-27T02:54:42.587Z,99.99
2018-11-27T02:55:43.276Z,99.99
2018-11-27T02:56:44.050Z,99.99
2018-11-27T02:57:44.495Z,99.99
2018-11-27T02:58:45.997Z,99.99
2018-11-27T02:59:46.671Z,99.99
2018-11-27T03:00:47.205Z,99.99
2018-11-27T03:01:48.544Z,99.99
2018-11-27T03:02:49.351Z,99.99
2018-11-27T03:03:49.739Z,99.99
2018-11-27T03:04:50.409Z,99.99
2018-11-27T03:05:51.025Z,99.99
2018-11-27T03:06:51.651Z,99.99
2018-11-27T03:07:52.945Z,99.99
2018-11-27T03:08:53.615Z,99.99
2018-11-27T03:09:54.324Z,99.99
2018-11-27T03:10:54.916Z,99.99
2018-11-27T03:11:55.677Z,99.99
2018-11-27T03:12:56.275Z,99.99
2018-11-27T03:13:56.805Z,99.99
2018-11-27T03:14:57.533Z,99.99
2018-11-27T03:15:58.154Z,99.99
2018-11-27T03:16:58.886Z,99.99
2018-11-27T03:18:02.053Z,99.99
2018-11-27T03:19:02.762Z,99.99
2018-11-27T03:20:03.261Z,99.99
2018-11-27T03:21:03.926Z,99.99
2018-11-27T03:22:04.636Z,99.99
2018-11-27T03:23:05.229Z,99.99
2018-11-27T03:24:06.853Z,99.99
2018-11-27T03:25:07.101Z,99.99
2018-11-27T03:26:07.972Z,99.99
2018-11-27T03:27:08.450Z,99.99
2018-11-27T03:28:09.099Z,99.99
2018-11-27T03:29:11.508Z,99.99
2018-11-27T03:30:12.174Z,99.99
2018-11-27T03:31:12.917Z,99.99
2018-11-27T03:32:13.399Z,99.99
2018-11-27T03:33:13.997Z,99.99
2018-11-27T03:34:15.521Z,99.99
2018-11-27T03:35:16.140Z,99.99
2018-11-27T03:36:16.656Z,99.99
2018-11-27T03:37:17.346Z,99.99
2018-11-27T03:38:17.975Z,99.99
2018-11-27T03:39:18.597Z,99.99
2018-11-27T03:40:19.419Z,99.99
2018-11-27T03:41:19.890Z,99.99
2018-11-27T03:42:20.561Z,99.99
2018-11-27T03:43:21.345Z,99.99
2018-11-27T03:44:21.868Z,99.99
2018-11-27T03:45:22.549Z,99.99
2018-11-27T03:46:23.142Z,99.99
2018-11-27T03:47:24.527Z,99.99
2018-11-27T03:48:25.213Z,99.99
2018-11-27T03:49:25.675Z,99.99
2018-11-27T03:50:26.377Z,99.99
2018-11-27T03:51:26.961Z,99.99
2018-11-27T03:52:27.627Z,99.99
2018-11-27T03:53:28.373Z,99.99
2018-11-27T03:54:30.969Z,99.99
2018-11-27T03:55:31.540Z,99.99
2018-11-27T03:56:32.391Z,99.99
2018-11-27T03:57:34.888Z,99.99
2018-11-27T03:58:35.796Z,99.99
2018-11-27T03:59:36.491Z,99.99
2018-11-27T04:00:37.144Z,99.99
2018-11-27T04:01:37.855Z,99.99
2018-11-27T04:02:38.716Z,99.99
2018-11-27T04:03:39.505Z,99.99
2018-11-27T04:04:40.104Z,99.99
2018-11-27T04:05:40.856Z,99.99
2018-11-27T04:06:41.458Z,99.99
2018-11-27T04:07:42.165Z,99.99
2018-11-27T04:08:42.878Z,99.99
2018-11-27T04:09:43.514Z,99.99
2018-11-27T04:10:44.246Z,99.99
2018-11-27T04:11:44.877Z,99.99
2018-11-27T04:12:45.518Z,99.99
2018-11-27T04:13:46.154Z,99.99
2018-11-27T04:14:47.013Z,99.99
2018-11-27T04:15:47.757Z,99.99
2018-11-27T04:16:48.514Z,99.99
2018-11-27T04:17:49.193Z,99.99
2018-11-27T04:18:49.933Z,99.99
2018-11-27T04:19:50.668Z,99.99
2018-11-27T04:20:51.383Z,99.99
2018-11-27T04:21:52.014Z,99.99
2018-11-27T04:22:52.687Z,99.99
2018-11-27T04:23:53.287Z,99.99
2018-11-27T04:24:56.972Z,99.99
2018-11-27T04:25:59.470Z,99.99
2018-11-27T04:27:00.287Z,99.99
2018-11-27T04:28:00.935Z,99.99
2018-11-27T04:29:01.577Z,99.99
2018-11-27T04:30:02.328Z,99.99
2018-11-27T04:31:03.101Z,99.99
2018-11-27T04:32:03.819Z,99.99
2018-11-27T04:33:04.591Z,99.99
2018-11-27T04:34:05.511Z,99.99
2018-11-27T04:35:06.203Z,99.99
2018-11-27T04:36:06.928Z,99.99
2018-11-27T04:37:07.689Z,99.99
2018-11-27T04:38:08.663Z,99.99
2018-11-27T04:39:09.208Z,99.99
2018-11-27T04:40:09.917Z,99.99
2018-11-27T04:41:10.658Z,99.99
2018-11-27T04:42:11.477Z,99.99
2018-11-27T04:43:12.223Z,99.99
2018-11-27T04:44:13.267Z,99.99
2018-11-27T04:45:13.865Z,99.99
2018-11-27T04:46:14.578Z,99.99
2018-11-27T04:47:15.335Z,99.99
2018-11-27T04:48:16.056Z,99.99
2018-11-27T04:49:16.850Z,99.99
2018-11-27T04:50:17.584Z,99.99
2018-11-27T04:51:18.310Z,99.99
2018-11-27T04:52:19.049Z,99.99
2018-11-27T04:53:20.376Z,99.99
2018-11-27T04:54:21.154Z,99.99
2018-11-27T04:55:21.852Z,99.99
2018-11-27T04:56:22.571Z,99.99
2018-11-27T04:57:23.298Z,99.99
2018-11-27T04:58:23.999Z,99.99
2018-11-27T04:59:24.665Z,99.99
2018-11-27T05:00:25.326Z,99.99
2018-11-27T05:01:26.026Z,99.99
2018-11-27T05:02:26.805Z,99.99
2018-11-27T05:03:27.555Z,99.99
2018-11-27T05:04:28.239Z,99.99
2018-11-27T05:05:28.962Z,99.99
2018-11-27T05:06:29.665Z,99.99
2018-11-27T05:07:30.307Z,99.99
2018-11-27T05:08:31.020Z,99.99
2018-11-27T05:09:31.701Z,99.99
2018-11-27T05:10:32.456Z,99.99
2018-11-27T05:11:33.272Z,99.99
2018-11-27T05:12:34.071Z,99.99
2018-11-27T05:13:34.705Z,99.99
2018-11-27T05:14:35.372Z,99.99
2018-11-27T05:15:36.050Z,99.99
2018-11-27T05:16:36.688Z,99.99
2018-11-27T05:17:37.271Z,99.99
2018-11-27T05:18:37.920Z,99.99
2018-11-27T05:19:38.600Z,99.99
2018-11-27T05:20:39.277Z,99.99
2018-11-27T05:21:39.827Z,99.99
2018-11-27T05:22:40.521Z,99.99
2018-11-27T05:23:41.151Z,99.99
2018-11-27T05:24:41.833Z,99.99
2018-11-27T05:25:42.456Z,99.99
2018-11-27T05:26:43.350Z,99.99
2018-11-27T05:27:44.059Z,99.99
2018-11-27T06:18:38.224Z,99.99
2018-11-27T06:19:38.486Z,99.99
2018-11-27T06:20:40.564Z,99.99
2018-11-27T06:21:41.428Z,99.99
2018-11-27T06:22:42.072Z,99.99
2018-11-27T06:23:42.538Z,99.99
2018-11-27T06:24:43.262Z,99.99
2018-11-27T06:25:43.263Z,99.99
2018-11-27T06:26:43.792Z,99.99
2018-11-27T06:27:45.232Z,99.99
2018-11-27T06:28:44.026Z,99.99
2018-11-27T06:29:44.473Z,99.99
2018-11-27T06:30:45.057Z,99.99
2018-11-27T06:31:45.771Z,99.99
2018-11-27T06:32:46.326Z,99.99
2018-11-27T06:33:47.060Z,99.99
2018-11-27T06:34:47.627Z,99.99
2018-11-27T06:35:48.239Z,99.99
2018-11-27T06:36:48.876Z,99.99
2018-11-27T06:37:49.577Z,99.99
2018-11-27T06:38:52.198Z,99.99
2018-11-27T06:39:52.952Z,99.99
2018-11-27T06:40:53.660Z,99.99
2018-11-27T06:41:54.321Z,99.99
2018-11-27T06:42:54.910Z,99.99
2018-11-27T06:43:56.406Z,99.99
2018-11-27T06:44:56.923Z,99.99
2018-11-27T06:45:57.775Z,99.99
2018-11-27T06:46:58.102Z,99.99
2018-11-27T06:47:58.930Z,99.99
2018-11-27T06:48:59.513Z,99.99
2018-11-27T06:50:01.656Z,99.99
2018-11-27T06:51:02.172Z,99.99
2018-11-27T06:52:02.892Z,99.99
2018-11-27T06:53:03.525Z,99.99
2018-11-27T06:54:04.123Z,99.99
2018-11-27T06:55:04.747Z,99.99
2018-11-27T06:56:05.461Z,99.99
2018-11-27T06:57:06.081Z,99.99
2018-11-27T06:58:06.977Z,99.99
2018-11-27T06:59:14.079Z,99.99
2018-11-27T07:00:14.857Z,99.99
2018-11-27T07:01:15.510Z,99.99
2018-11-27T07:02:16.129Z,99.99
2018-11-27T07:03:16.709Z,99.99
2018-11-27T07:04:17.490Z,99.99
2018-11-27T07:05:18.053Z,99.99
2018-11-27T07:06:18.663Z,99.99
2018-11-27T07:07:19.369Z,99.99
2018-11-27T07:08:20.164Z,99.99
2018-11-27T07:09:20.631Z,99.99
2018-11-27T07:10:21.284Z,99.99
2018-11-27T07:11:22.143Z,99.99
2018-11-27T07:12:22.857Z,99.99
2018-11-27T07:13:23.147Z,99.99
2018-11-27T07:14:23.979Z,99.99
2018-11-27T07:15:25.102Z,99.99
2018-11-27T07:16:26.981Z,99.99
2018-11-27T07:17:27.273Z,99.99
2018-11-27T07:18:28.642Z,99.99
2018-11-27T07:19:29.653Z,99.99
2018-11-27T07:20:30.618Z,99.99
2018-11-27T07:21:31.272Z,99.99
2018-11-27T07:22:39.389Z,99.99
2018-11-27T07:23:40.201Z,99.99
2018-11-27T07:24:40.855Z,99.99
2018-11-27T07:25:41.262Z,99.99
2018-11-27T07:26:44.263Z,99.99
2018-11-27T07:27:45.226Z,99.99
2018-11-27T07:28:45.893Z,99.99
2018-11-27T07:29:46.581Z,99.99
2018-11-27T07:30:47.373Z,99.99
2018-11-27T07:32:02.737Z,99.99
2018-11-27T07:33:04.275Z,99.99
2018-11-27T07:34:04.886Z,99.99
2018-11-27T07:35:05.485Z,99.99
2018-11-27T07:36:06.046Z,99.99
2018-11-27T07:37:07.122Z,99.99
2018-11-27T07:38:08.157Z,99.99
2018-11-27T07:39:10.762Z,99.99
2018-11-27T07:40:16.806Z,99.99
2018-11-27T07:41:27.285Z,99.99
2018-11-27T07:44:20.246Z,99.99
2018-11-27T07:45:22.885Z,99.99
2018-11-27T07:49:12.615Z,99.99
2018-11-27T07:50:13.764Z,99.99
2018-11-27T07:53:06.731Z,99.99
2018-11-27T07:54:08.542Z,99.99
2018-11-27T07:57:05.679Z,99.99
2018-11-27T07:58:07.495Z,99.99
2018-11-27T07:59:08.237Z,99.99
2018-11-27T08:00:10.861Z,99.99
2018-11-27T08:01:12.474Z,99.99
2018-11-27T08:02:12.883Z,99.99
2018-11-27T08:03:14.349Z,99.99
2018-11-27T08:04:16.941Z,99.99
2018-11-27T08:05:21.107Z,99.99
2018-11-27T08:06:22.557Z,99.99
2018-11-27T08:07:25.040Z,99.99
2018-11-27T08:08:26.584Z,99.99
2018-11-27T08:09:28.164Z,99.99
2018-11-27T08:10:28.660Z,99.99
2018-11-27T08:11:31.538Z,99.99
2018-11-27T08:12:33.104Z,99.99
2018-11-27T08:13:33.672Z,99.99
2018-11-27T08:14:35.346Z,99.99
2018-11-27T08:15:37.838Z,99.99
2018-11-27T08:16:38.491Z,99.99
2018-11-27T08:17:41.034Z,99.99
2018-11-27T08:18:41.549Z,99.99
2018-11-27T08:19:59.780Z,99.99
2018-11-27T08:21:01.565Z,99.99
2018-11-27T08:22:03.856Z,99.99
2018-11-27T08:23:12.015Z,99.99
2018-11-27T08:26:08.264Z,99.99
2018-11-27T08:27:09.490Z,99.99
2018-11-27T08:30:02.730Z,99.99
2018-11-27T08:31:02.860Z,99.99
2018-11-27T08:32:04.543Z,99.99
2018-11-27T08:33:06.052Z,99.99
2018-11-27T08:34:05.070Z,99.99
2018-11-27T08:35:07.431Z,99.99
2018-11-27T08:36:09.684Z,99.99
2018-11-27T08:37:09.254Z,99.99
2018-11-27T08:38:11.037Z,99.99
2018-11-27T08:39:11.053Z,99.99
2018-11-27T08:40:11.698Z,99.99
2018-11-27T08:41:11.692Z,99.99
2018-11-27T08:42:12.151Z,99.99
2018-11-27T08:43:14.466Z,99.99
2018-11-27T08:44:17.150Z,99.99
2018-11-27T08:45:19.441Z,99.99
2018-11-27T08:46:20.342Z,99.99
2018-11-27T08:47:21.799Z,99.99
2018-11-27T08:48:32.968Z,99.99
2018-11-27T08:49:34.888Z,99.99
2018-11-27T08:50:34.852Z,99.99
2018-11-27T08:51:37.263Z,99.99
2018-11-27T08:52:40.043Z,99.99
2018-11-27T08:53:40.665Z,99.99
2018-11-27T08:54:50.195Z,99.99
2018-11-27T08:55:55.365Z,99.99
2018-11-27T08:57:03.738Z,99.99
2018-11-27T08:58:06.317Z,99.99
2018-11-27T08:59:07.756Z,99.99
2018-11-27T09:00:09.231Z,99.99
2018-11-27T09:03:34.032Z,99.99
2018-11-27T09:04:50.021Z,99.99
2018-11-27T09:06:11.409Z,99.99
2018-11-27T09:07:12.298Z,99.99
2018-11-27T09:08:13.818Z,99.99
2018-11-27T09:09:15.741Z,99.99
2018-11-27T09:10:16.561Z,99.99
2018-11-27T09:11:25.164Z,99.99
2018-11-27T09:14:20.979Z,99.99
2018-11-27T09:15:28.061Z,99.99
2018-11-27T09:16:27.617Z,99.99
2018-11-27T09:17:29.309Z,99.99
2018-11-27T09:18:30.004Z,99.99
2018-11-27T09:19:34.516Z,99.99
2018-11-27T09:20:35.931Z,99.99
2018-11-27T09:21:48.036Z,99.99
2018-11-27T09:22:48.117Z,99.99
2018-11-27T09:23:49.470Z,99.99
2018-11-27T09:24:50.618Z,99.99
2018-11-27T09:25:51.990Z,99.99
2018-11-27T09:26:53.181Z,99.99
2018-11-27T09:28:16.885Z,99.99
2018-11-27T09:29:20.897Z,99.99
2018-11-27T09:30:23.771Z,99.99
2018-11-27T09:31:25.802Z,99.99
2018-11-27T09:32:27.414Z,99.99
2018-11-27T09:33:28.718Z,99.99
2018-11-27T09:34:38.480Z,99.99
2018-11-27T09:35:39.244Z,99.99
2018-11-27T09:37:01.693Z,99.99
2018-11-27T09:38:09.937Z,99.99
2018-11-27T09:41:50.922Z,99.99
2018-11-27T09:43:20.948Z,99.99
2018-11-27T09:44:22.734Z,99.99
2018-11-27T09:45:23.368Z,99.99
2018-11-27T09:46:27.408Z,99.99
2018-11-27T09:47:27.592Z,99.99
2018-11-27T09:48:29.810Z,99.99
2018-11-27T09:49:36.705Z,99.99
2018-11-27T09:53:35.883Z,99.99
2018-11-27T09:54:36.377Z,99.99
2018-11-27T09:58:49.928Z,99.99
2018-11-27T09:59:49.922Z,99.99
2018-11-27T10:00:50.444Z,99.99
2018-11-27T10:01:52.063Z,99.99
2018-11-27T10:02:51.854Z,99.99
2018-11-27T10:03:51.718Z,99.99
2018-11-27T10:04:54.101Z,99.99
2018-11-27T10:06:00.526Z,99.99
2018-11-27T10:07:02.318Z,99.63
2018-11-27T10:08:13.360Z,99.99
2018-11-27T10:09:13.789Z,99.99
2018-11-27T10:10:14.994Z,99.99
2018-11-27T10:11:24.219Z,99.99
2018-11-27T10:12:23.821Z,99.63
2018-11-27T10:13:27.034Z,99.99
2018-11-27T10:14:27.168Z,99.99
2018-11-27T10:15:28.354Z,99.91
2018-11-27T10:16:30.568Z,98.97
2018-11-27T10:17:31.202Z,98.21
2018-11-27T10:18:31.799Z,97.83
2018-11-27T10:19:32.525Z,98.02
2018-11-27T10:20:40.974Z,98.49
2018-11-27T10:23:34.427Z,98.30
2018-11-27T10:24:38.011Z,98.87
2018-11-27T10:28:21.211Z,98.78
2018-11-27T10:29:21.533Z,99.16
2018-11-27T10:32:15.954Z,99.44
2018-11-27T10:33:37.171Z,99.35
2018-11-27T10:34:38.367Z,98.78
2018-11-27T10:43:47.930Z,96.78
2018-11-27T10:44:50.443Z,96.78
2018-11-27T10:45:51.960Z,95.98
2018-11-27T10:46:52.793Z,96.26
2018-11-27T10:47:52.341Z,96.88
2018-11-27T10:49:07.977Z,96.97
2018-11-27T10:50:08.693Z,96.97
2018-11-27T10:51:10.604Z,96.78
2018-11-27T10:54:24.185Z,94.84
2018-11-27T11:00:28.805Z,94.98
2018-11-27T11:01:29.996Z,94.98
2018-11-27T11:02:39.857Z,94.65
2018-11-27T11:05:36.454Z,94.60
2018-11-27T11:07:00.589Z,94.13
2018-11-27T11:08:05.060Z,94.51
2018-11-27T11:09:34.141Z,94.23
2018-11-27T11:10:33.458Z,93.46
2018-11-27T11:11:35.784Z,94.51
2018-11-27T11:12:38.458Z,94.03
2018-11-27T11:13:39.960Z,94.32
2018-11-27T11:14:41.875Z,94.13
2018-11-27T11:15:41.659Z,94.51
2018-11-27T11:16:43.785Z,93.56
2018-11-27T11:17:52.304Z,93.75
2018-11-27T11:20:45.725Z,92.71
2018-11-27T11:21:54.354Z,92.61
2018-11-27T11:23:01.873Z,92.42
2018-11-27T11:25:55.546Z,91.38
2018-11-27T11:26:57.829Z,91.00
2018-11-27T11:28:06.757Z,91.56
2018-11-27T11:31:06.988Z,91.75
2018-11-27T11:32:05.921Z,91.66
2018-11-27T11:33:10.326Z,90.62
2018-11-27T11:34:12.769Z,90.52
2018-11-27T11:35:13.544Z,90.33
2018-11-27T11:36:13.681Z,90.24
2018-11-27T11:37:15.869Z,90.52
2018-11-27T11:38:16.762Z,90.33
2018-11-27T11:39:17.720Z,90.14
2018-11-27T11:40:17.880Z,90.43
2018-11-27T11:41:18.188Z,90.33
2018-11-27T11:42:18.606Z,91.09
2018-11-27T11:43:25.844Z,91.28
2018-11-27T11:44:26.270Z,91.66
2018-11-27T11:45:26.878Z,92.09
2018-11-27T11:46:27.570Z,91.42
2018-11-27T11:47:28.171Z,91.61
2018-11-27T11:48:28.764Z,90.85
2018-11-27T11:49:29.685Z,90.95
2018-11-27T11:50:30.171Z,91.33
2018-11-27T11:54:54.004Z,90.57
2018-11-27T11:55:54.842Z,91.04
2018-11-27T11:59:28.949Z,89.90
2018-11-27T12:00:29.564Z,88.76
2018-11-27T12:03:27.495Z,87.82
2018-11-27T12:04:30.086Z,88.10
2018-11-27T12:05:34.148Z,88.48
2018-11-27T12:06:37.041Z,88.76
2018-11-27T12:07:41.074Z,88.76
2018-11-27T12:08:44.170Z,88.67
2018-11-27T12:09:51.585Z,88.20
2018-11-27T12:12:46.350Z,89.05
2018-11-27T12:13:47.471Z,88.57
2018-11-27T12:16:40.811Z,88.01
2018-11-27T12:17:41.109Z,88.20
2018-11-27T12:18:42.251Z,88.01
2018-11-27T12:19:43.972Z,88.29
2018-11-27T12:20:42.943Z,88.67
2018-11-27T12:21:43.684Z,88.29
2018-11-27T12:22:44.059Z,87.24
2018-11-27T12:23:44.467Z,87.91
2018-11-27T12:24:45.152Z,88.86
2018-11-27T12:25:45.770Z,88.57
2018-11-27T12:26:46.464Z,88.67
2018-11-27T12:27:47.070Z,88.76
2018-11-27T12:28:47.790Z,88.67
2018-11-27T12:29:48.424Z,88.39
2018-11-27T12:30:49.051Z,88.72
2018-11-27T12:31:49.728Z,89.53
2018-11-27T12:32:50.387Z,88.72
2018-11-27T12:33:51.002Z,89.53
2018-11-27T12:34:51.667Z,89.67
2018-11-27T12:35:52.292Z,89.20
2018-11-27T12:36:52.928Z,89.39
2018-11-27T12:37:53.579Z,89.39
2018-11-27T12:38:54.247Z,89.76
2018-11-27T12:39:54.936Z,90.24
2018-11-27T12:40:55.472Z,90.62
2018-11-27T12:41:56.157Z,90.05
2018-11-27T12:42:56.838Z,91.09
2018-11-27T12:43:57.434Z,90.43
2018-11-27T12:44:58.083Z,90.09
2018-11-27T12:45:58.795Z,90.47
2018-11-27T12:46:59.432Z,90.00
2018-11-27T12:48:00.113Z,89.05
2018-11-27T12:49:00.690Z,88.86
2018-11-27T12:50:03.182Z,87.87
2018-11-27T12:51:03.867Z,88.06
2018-11-27T12:52:04.472Z,88.06
2018-11-27T12:53:05.188Z,86.91
2018-11-27T12:54:05.820Z,87.20
2018-11-27T12:55:06.509Z,87.58
2018-11-27T12:56:07.147Z,87.49
2018-11-27T12:57:07.806Z,87.49
2018-11-27T12:58:08.415Z,87.30
2018-11-27T12:59:09.017Z,87.49
2018-11-27T13:00:09.725Z,86.72
2018-11-27T13:01:10.335Z,86.82
2018-11-27T13:02:10.994Z,86.82
2018-11-27T13:03:11.678Z,87.77
2018-11-27T13:04:12.348Z,88.06
2018-11-27T13:05:12.960Z,88.62
2018-11-27T13:06:13.643Z,88.72
2018-11-27T13:07:14.251Z,89.58
2018-11-27T13:08:14.836Z,88.53
2018-11-27T13:09:15.485Z,89.00
2018-11-27T13:10:16.236Z,88.72
2018-11-27T13:11:16.851Z,88.53
2018-11-27T13:12:17.459Z,88.24
2018-11-27T13:13:18.108Z,89.29
2018-11-27T13:14:18.796Z,89.39
2018-11-27T13:15:19.370Z,88.62
2018-11-27T13:16:20.092Z,88.34
2018-11-27T13:17:20.727Z,87.68
2018-11-27T13:18:21.381Z,87.77
2018-11-27T13:19:21.989Z,88.06
2018-11-27T13:20:22.692Z,87.96
2018-11-27T13:21:23.305Z,87.49
2018-11-27T13:22:23.894Z,87.96
2018-11-27T13:23:24.537Z,88.34
2018-11-27T13:24:25.223Z,87.58
2018-11-27T13:25:25.920Z,87.58
2018-11-27T13:26:26.479Z,88.34
2018-11-27T13:27:27.182Z,88.81
2018-11-27T13:28:27.790Z,88.81
2018-11-27T13:29:28.515Z,87.96
2018-11-27T13:30:29.062Z,88.06
2018-11-27T13:31:30.218Z,88.15
2018-11-27T13:32:30.783Z,87.77
2018-11-27T13:33:31.429Z,87.49
2018-11-27T13:34:31.950Z,88.06
2018-11-27T13:35:32.581Z,87.58
2018-11-27T13:36:33.187Z,87.58
2018-11-27T13:37:33.728Z,87.68
2018-11-27T13:38:34.337Z,87.77
2018-11-27T13:39:35.017Z,87.87
2018-11-27T13:40:35.508Z,87.39
2018-11-27T13:41:36.139Z,88.24
2018-11-27T13:42:36.677Z,87.58
2018-11-27T13:43:37.374Z,87.58
2018-11-27T13:44:37.914Z,87.68
2018-11-27T13:45:38.459Z,88.24
2018-11-27T13:46:39.102Z,88.62
2018-11-27T13:47:39.694Z,88.81
2018-11-27T13:48:40.315Z,88.62
2018-11-27T13:49:40.948Z,89.39
2018-11-27T13:50:41.483Z,88.43
2018-11-27T13:51:42.157Z,88.91
2018-11-27T13:52:42.652Z,89.00
2018-11-27T13:53:43.516Z,88.72
2018-11-27T13:54:43.918Z,88.15
2018-11-27T13:55:44.614Z,87.96
2018-11-27T13:56:45.136Z,87.68
2018-11-27T13:57:45.712Z,87.68
2018-11-27T13:58:46.327Z,87.49
2018-11-27T13:59:46.868Z,87.58
2018-11-27T14:00:47.557Z,87.20
2018-11-27T14:01:48.180Z,87.96
2018-11-27T14:02:48.641Z,87.96
2018-11-27T14:03:49.279Z,87.68
2018-11-27T14:04:49.846Z,87.58
2018-11-27T14:05:50.475Z,87.58
2018-11-27T14:06:50.989Z,87.58
2018-11-27T14:07:51.626Z,88.24
2018-11-27T14:08:52.239Z,87.77
2018-11-27T14:09:53.663Z,88.15
2018-11-27T14:10:54.271Z,87.73
2018-11-27T14:11:54.820Z,87.63
2018-11-27T14:12:55.425Z,88.77
2018-11-27T14:13:56.105Z,88.29
2018-11-27T14:14:56.662Z,88.68
2018-11-27T14:15:57.246Z,88.58
2018-11-27T14:16:57.829Z,88.68
2018-11-27T14:17:58.550Z,89.25
2018-11-27T14:18:59.023Z,88.10
2018-11-27T14:19:59.709Z,87.63
2018-11-27T14:21:00.259Z,88.77
2018-11-27T14:22:00.937Z,88.58
2018-11-27T14:23:01.521Z,89.25
2018-11-27T14:24:02.052Z,89.25
2018-11-27T14:25:02.664Z,89.25
2018-11-27T14:26:03.277Z,89.34
2018-11-27T14:27:03.846Z,89.43
2018-11-27T14:28:04.478Z,89.72
2018-11-27T14:29:05.109Z,89.34
2018-11-27T14:30:05.766Z,88.87
2018-11-27T14:31:06.208Z,88.01
2018-11-27T14:32:06.905Z,88.48
2018-11-27T14:33:07.420Z,88.48
2018-11-27T14:34:08.027Z,87.92
2018-11-27T14:35:08.573Z,88.77
2018-11-27T14:36:09.217Z,88.77
2018-11-27T14:37:09.824Z,88.48
2018-11-27T14:38:10.441Z,88.68
2018-11-27T14:39:10.978Z,88.58
2018-11-27T14:40:11.585Z,88.48
2018-11-27T14:41:12.166Z,88.48
2018-11-27T14:42:12.732Z,87.45
2018-11-27T14:43:13.345Z,87.35
2018-11-27T14:44:13.931Z,87.92
2018-11-27T14:45:14.544Z,88.01
2018-11-27T14:46:16.784Z,88.39
2018-11-27T14:47:17.307Z,88.77
2018-11-27T14:48:19.114Z,88.58
2018-11-27T14:49:18.488Z,88.87
2018-11-27T14:50:19.084Z,89.25
2018-11-27T14:51:19.629Z,89.53
2018-11-27T14:52:20.168Z,89.81
2018-11-27T14:53:20.817Z,88.68
2018-11-27T14:54:21.438Z,88.48
2018-11-27T14:55:22.016Z,89.34
2018-11-27T14:56:22.577Z,88.48
2018-11-27T14:57:23.224Z,88.01
2018-11-27T14:58:23.822Z,88.77
2018-11-27T14:59:24.433Z,89.43
2018-11-27T15:00:25.010Z,89.34
2018-11-27T15:01:25.532Z,88.48
2018-11-27T15:02:26.236Z,88.10
2018-11-27T15:03:26.748Z,88.39
2018-11-27T15:04:27.335Z,87.92
2018-11-27T15:05:27.924Z,87.82
2018-11-27T15:06:28.542Z,87.63
2018-11-27T15:07:29.196Z,88.39
2018-11-27T15:08:29.844Z,88.01
2018-11-27T15:09:30.348Z,88.58
2018-11-27T15:10:31.027Z,88.77
2018-11-27T15:11:31.555Z,88.68
2018-11-27T15:12:32.232Z,89.34
2018-11-27T15:13:33.140Z,89.34
2018-11-27T15:14:33.798Z,89.15
2018-11-27T15:53:13.687Z,91.90
2018-11-27T15:54:14.774Z,91.33
2018-11-27T15:55:15.074Z,91.33
2018-11-27T17:42:28.747Z,93.37
2018-11-27T17:43:29.566Z,93.18
2018-11-27T17:44:29.816Z,94.23
2018-11-27T17:45:30.173Z,94.70
2018-11-27T17:46:30.573Z,94.70
2018-11-27T17:47:31.282Z,94.13
2018-11-27T17:48:31.640Z,93.84
2018-11-27T17:49:32.399Z,93.37
2018-11-27T17:50:33.052Z,93.65
2018-11-27T17:51:34.044Z,93.27
2018-11-27T17:52:34.454Z,93.46
2018-11-27T17:53:35.001Z,93.18
2018-11-27T17:54:35.791Z,92.90
2018-11-27T17:55:37.265Z,93.08
2018-11-27T17:56:37.984Z,92.23
2018-11-27T17:57:38.700Z,92.14
2018-11-27T17:58:39.157Z,92.80
2018-11-27T17:59:39.791Z,93.08
2018-11-27T18:00:40.502Z,92.52
2018-11-27T18:01:41.125Z,92.80
2018-11-27T18:02:41.803Z,92.23
2018-11-27T18:03:42.493Z,92.33
2018-11-27T18:04:43.100Z,92.04
2018-11-27T18:05:43.633Z,93.18
2018-11-27T18:06:44.411Z,92.61
2018-11-27T18:07:44.978Z,92.99
2018-11-27T18:08:45.653Z,93.08
2018-11-27T18:09:46.290Z,93.08
2018-11-27T18:10:46.935Z,92.80
2018-11-27T18:11:47.633Z,92.80
2018-11-27T18:12:48.099Z,93.37
2018-11-27T18:13:48.778Z,92.80
2018-11-27T18:14:50.366Z,92.52
2018-11-27T18:15:51.805Z,92.80
2018-11-27T18:16:52.609Z,92.71
2018-11-27T18:17:53.098Z,92.71
2018-11-27T18:18:53.790Z,92.42
2018-11-27T18:19:54.478Z,92.23
2018-11-27T18:20:55.770Z,91.00
2018-11-27T18:21:56.329Z,90.81
2018-11-27T18:22:57.116Z,91.57
2018-11-27T18:23:57.646Z,91.19
2018-11-27T18:24:58.297Z,91.28
2018-11-27T18:25:59.817Z,91.00